createdAt,value
2017-09-26T07:51:21.628Z,4.30
2017-09-26T07:53:49.870Z,3.60
2017-09-26T07:56:18.097Z,3.57
2017-09-26T07:58:47.392Z,3.90
2017-09-26T08:01:18.009Z,4.07
2017-09-26T08:03:47.465Z,4.07
2017-09-26T08:06:18.074Z,4.43
2017-09-26T08:08:48.937Z,4.80
2017-09-26T08:11:17.193Z,4.03
2017-09-26T08:13:45.482Z,5.10
2017-09-26T08:16:14.087Z,4.93
2017-09-26T08:18:42.673Z,5.00
2017-09-26T08:21:10.912Z,4.20
2017-09-26T08:23:39.196Z,5.10
2017-09-26T08:26:07.436Z,4.80
2017-09-26T08:28:35.657Z,4.70
2017-09-26T08:31:03.908Z,3.60
2017-09-26T08:33:32.888Z,4.60
2017-09-26T08:36:01.901Z,4.00
2017-09-26T08:38:30.280Z,4.90
2017-09-26T08:40:59.321Z,4.70
2017-09-26T08:43:28.993Z,4.77
2017-09-26T08:45:57.232Z,5.43
2017-09-26T08:48:25.465Z,5.00
2017-09-26T08:50:53.790Z,4.90
2017-09-26T08:53:21.985Z,5.27
2017-09-26T08:55:50.225Z,5.10
2017-09-26T08:58:18.509Z,4.80
2017-09-26T09:00:46.798Z,4.10
2017-09-26T09:03:16.661Z,4.90
2017-09-26T09:05:44.977Z,4.90
2017-09-26T09:08:13.189Z,4.40
2017-09-26T09:10:41.483Z,5.20
2017-09-26T09:13:09.729Z,4.60
2017-09-26T09:15:38.767Z,4.90
2017-09-26T09:18:07.025Z,4.20
2017-09-26T09:20:35.255Z,4.63
2017-09-26T09:23:03.488Z,4.47
2017-09-26T09:25:31.754Z,4.67
2017-09-26T09:28:00.028Z,4.50
2017-09-26T09:30:28.344Z,4.03
2017-09-26T09:32:56.657Z,4.53
2017-09-26T09:35:25.680Z,4.60
2017-09-26T09:37:54.025Z,4.67
2017-09-26T09:40:23.462Z,4.90
2017-09-26T09:42:51.696Z,5.63
2017-09-26T09:45:20.687Z,5.30
2017-09-26T09:47:49.700Z,4.90
2017-09-26T09:50:18.688Z,5.10
2017-09-26T09:52:47.695Z,4.67
2017-09-26T09:55:15.940Z,5.30
2017-09-26T09:57:44.161Z,4.60
2017-09-26T10:00:12.954Z,4.40
2017-09-26T10:02:41.223Z,4.90
2017-09-26T10:07:48.657Z,4.60
2017-09-26T10:10:16.946Z,4.60
2017-09-26T10:12:45.231Z,4.93
2017-09-26T10:15:13.459Z,5.10
2017-09-26T10:17:42.304Z,4.30
2017-09-26T10:20:10.535Z,4.57
2017-09-26T10:22:38.786Z,4.47
2017-09-26T10:25:07.700Z,5.07
2017-09-26T10:27:35.931Z,5.20
2017-09-26T10:30:04.257Z,4.50
2017-09-26T10:32:32.483Z,3.70
2017-09-26T10:35:00.809Z,4.30
2017-09-26T10:37:29.072Z,4.50
2017-09-26T10:39:57.339Z,4.60
2017-09-26T10:42:26.415Z,3.67
2017-09-26T10:44:55.521Z,3.80
2017-09-26T10:47:29.388Z,3.83
2017-09-26T10:49:57.684Z,4.53
2017-09-26T10:52:25.908Z,4.17
2017-09-26T10:54:54.132Z,3.67
2017-09-26T10:57:22.408Z,4.70
2017-09-26T10:59:50.655Z,4.37
2017-09-26T11:02:18.905Z,4.07
2017-09-26T11:04:47.668Z,3.90
2017-09-26T11:07:16.702Z,3.80
2017-09-26T11:09:44.967Z,3.60
2017-09-26T11:12:13.200Z,3.40
2017-09-26T11:14:42.221Z,3.57
2017-09-26T11:17:10.517Z,4.47
2017-09-26T11:19:38.818Z,4.10
2017-09-26T11:22:07.179Z,4.00
2017-09-26T11:24:35.545Z,3.13
2017-09-26T11:27:04.216Z,4.43
2017-09-26T11:29:33.216Z,4.23
2017-09-26T11:32:01.480Z,3.87
2017-09-26T11:34:30.500Z,2.87
2017-09-26T11:36:58.809Z,3.50
2017-09-26T11:39:27.072Z,3.67
2017-09-26T11:41:55.623Z,3.20
2017-09-26T11:44:24.683Z,3.50
2017-09-26T11:46:52.984Z,3.13
2017-09-26T11:49:22.436Z,3.97
2017-09-26T11:51:50.815Z,3.27
2017-09-26T11:54:19.198Z,3.17
2017-09-26T11:56:47.429Z,3.40
2017-09-26T11:59:16.411Z,3.57
2017-09-26T12:01:44.668Z,3.20
2017-09-26T12:04:12.947Z,3.33
2017-09-26T12:06:41.268Z,2.83
2017-09-26T12:09:09.513Z,3.50
2017-09-26T12:11:38.621Z,3.30
2017-09-26T12:14:08.196Z,3.57
2017-09-26T12:16:36.468Z,3.17
2017-09-26T12:19:04.696Z,4.00
2017-09-26T12:21:32.914Z,3.17
2017-09-26T12:24:01.237Z,4.10
2017-09-26T12:26:29.662Z,3.90
2017-09-26T12:28:57.920Z,3.67
2017-09-26T12:31:26.178Z,3.20
2017-09-26T12:33:55.171Z,3.23
2017-09-26T12:36:23.489Z,2.80
2017-09-26T12:38:51.823Z,3.43
2017-09-26T12:41:20.852Z,3.30
2017-09-26T12:43:49.088Z,3.90
2017-09-26T12:46:18.228Z,3.30
2017-09-26T12:48:46.481Z,3.53
2017-09-26T12:51:14.800Z,3.20
2017-09-26T12:53:43.106Z,3.00
2017-09-26T12:56:12.129Z,3.97
2017-09-26T12:58:40.518Z,4.00
2017-09-26T13:01:08.795Z,2.70
2017-09-26T13:03:37.024Z,3.50
2017-09-26T13:06:05.241Z,3.73
2017-09-26T13:08:33.486Z,3.60
2017-09-26T13:11:02.480Z,2.93
2017-09-26T13:13:31.520Z,3.40
2017-09-26T13:15:59.781Z,2.73
2017-09-26T13:18:28.032Z,2.87
2017-09-26T13:20:57.037Z,4.17
2017-09-26T13:23:25.280Z,4.17
2017-09-26T13:25:54.353Z,3.43
2017-09-26T13:28:23.476Z,3.50
2017-09-26T13:30:51.717Z,3.63
2017-09-26T13:33:19.995Z,3.60
2017-09-26T13:35:48.233Z,2.90
2017-09-26T13:38:16.616Z,4.00
2017-09-26T13:40:44.910Z,3.63
2017-09-26T13:43:13.193Z,2.93
2017-09-26T13:45:42.329Z,3.23
2017-09-26T13:48:10.636Z,3.50
2017-09-26T13:50:39.677Z,4.00
2017-09-26T13:53:08.035Z,3.37
2017-09-26T13:55:36.296Z,3.23
2017-09-26T13:58:04.602Z,3.93
2017-09-26T14:00:32.951Z,3.50
2017-09-26T14:03:01.340Z,3.13
2017-09-26T14:05:29.608Z,3.50
2017-09-26T14:07:57.850Z,3.43
2017-09-26T14:10:26.089Z,4.37
2017-09-26T14:12:54.335Z,4.03
2017-09-26T14:18:02.706Z,5.03
2017-09-26T14:20:30.989Z,3.90
2017-09-26T14:22:59.574Z,5.73
2017-09-26T14:25:27.818Z,5.00
2017-09-26T14:27:56.061Z,4.47
2017-09-26T14:30:25.132Z,4.37
2017-09-26T14:32:54.120Z,4.27
2017-09-26T14:35:22.435Z,3.80
2017-09-26T14:37:50.656Z,3.00
2017-09-26T14:40:19.036Z,4.73
2017-09-26T14:42:47.279Z,4.40
2017-09-26T14:47:54.816Z,3.40
2017-09-26T14:50:23.140Z,3.30
2017-09-26T14:52:52.173Z,3.07
2017-09-26T14:55:20.400Z,3.90
2017-09-26T14:57:48.673Z,3.67
2017-09-26T15:00:16.913Z,3.57
2017-09-26T15:02:45.266Z,3.87
2017-09-26T15:05:13.504Z,3.57
2017-09-26T15:07:41.832Z,3.67
2017-09-26T15:10:10.041Z,3.73
2017-09-26T15:12:38.381Z,2.63
2017-09-26T15:15:06.631Z,4.03
2017-09-26T15:17:35.010Z,3.83
2017-09-26T15:20:04.025Z,3.43
2017-09-26T15:22:32.260Z,4.70
2017-09-26T15:25:00.584Z,3.07
2017-09-26T15:27:28.889Z,4.50
2017-09-26T15:29:57.309Z,3.50
2017-09-26T15:32:26.302Z,3.97
2017-09-26T15:34:55.330Z,3.13
2017-09-26T15:40:04.381Z,3.43
2017-09-26T15:42:32.633Z,4.27
2017-09-26T15:45:00.885Z,3.70
2017-09-26T15:47:29.112Z,4.10
2017-09-26T15:49:57.484Z,2.80
2017-09-26T15:52:25.708Z,4.37
2017-09-26T15:54:53.931Z,4.20
2017-09-26T15:57:22.155Z,3.30
2017-09-26T15:59:50.599Z,4.13
2017-09-26T16:02:19.088Z,3.00
2017-09-26T16:04:47.316Z,3.67
2017-09-26T16:07:16.329Z,3.53
2017-09-26T16:09:44.524Z,5.37
2017-09-26T16:12:12.869Z,4.60
2017-09-26T16:14:41.097Z,3.90
2017-09-26T16:17:09.961Z,5.00
2017-09-26T16:19:38.196Z,4.57
2017-09-26T16:22:07.193Z,4.30
2017-09-26T16:24:36.840Z,5.00
2017-09-26T16:27:05.041Z,4.10
2017-09-26T16:29:33.268Z,5.57
2017-09-26T16:32:01.491Z,4.43
2017-09-26T16:34:29.716Z,4.20
2017-09-26T16:36:57.953Z,4.83
2017-09-26T16:39:26.164Z,4.03
2017-09-26T16:41:54.469Z,3.83
2017-09-26T16:44:22.656Z,4.33
2017-09-26T16:46:50.867Z,4.07
2017-09-26T16:49:19.084Z,3.67
2017-09-26T16:51:47.337Z,4.20
2017-09-26T16:54:16.340Z,3.93
2017-09-26T16:56:44.577Z,4.10
2017-09-26T16:59:12.844Z,3.67
2017-09-26T17:01:41.100Z,4.43
2017-09-26T17:04:09.332Z,5.17
2017-09-26T17:06:39.493Z,3.63
2017-09-26T17:09:07.692Z,3.60
2017-09-26T17:11:35.927Z,4.30
2017-09-26T17:14:04.213Z,5.07
2017-09-26T17:16:32.424Z,3.70
2017-09-26T17:19:00.656Z,4.10
2017-09-26T17:21:28.874Z,3.60
2017-09-26T17:23:57.096Z,3.97
2017-09-26T17:26:25.311Z,3.90
2017-09-26T17:28:53.528Z,3.97
2017-09-26T17:31:22.500Z,3.60
2017-09-26T17:33:50.743Z,3.37
2017-09-26T17:36:19.012Z,3.50
2017-09-26T17:38:47.265Z,3.40
2017-09-26T17:41:16.300Z,3.90
2017-09-26T17:43:44.512Z,4.00
2017-09-26T17:46:13.655Z,3.80
2017-09-26T17:48:41.856Z,3.80
2017-09-26T17:51:10.060Z,3.70
2017-09-26T17:53:39.056Z,4.30
2017-09-26T17:56:08.020Z,3.80
2017-09-26T17:58:36.306Z,3.97
2017-09-26T18:01:04.519Z,3.60
2017-09-26T18:03:32.740Z,3.43
2017-09-26T18:06:00.964Z,4.07
2017-09-26T18:08:30.112Z,3.17
2017-09-26T18:10:58.496Z,4.40
2017-09-26T18:13:26.755Z,4.00
2017-09-26T18:15:55.036Z,4.33
2017-09-26T18:18:23.817Z,3.67
2017-09-26T18:20:52.040Z,4.10
2017-09-26T18:23:21.040Z,3.83
2017-09-26T18:25:50.022Z,3.93
2017-09-26T18:28:18.240Z,3.90
2017-09-26T18:30:46.468Z,3.70
2017-09-26T18:33:14.674Z,3.93
2017-09-26T18:35:42.896Z,4.20
2017-09-26T18:38:11.103Z,3.97
2017-09-26T18:40:40.081Z,4.07
2017-09-26T18:43:08.317Z,3.97
2017-09-26T18:45:46.474Z,4.27
2017-09-26T18:48:14.749Z,4.23
2017-09-26T18:50:42.965Z,4.10
2017-09-26T18:53:11.212Z,4.33
2017-09-26T18:55:40.211Z,4.70
2017-09-26T18:58:09.205Z,4.37
2017-09-26T19:00:38.196Z,4.10
2017-09-26T19:03:07.176Z,4.07
2017-09-26T19:05:35.380Z,4.60
2017-09-26T19:08:03.680Z,3.50
2017-09-26T19:10:31.943Z,3.90
2017-09-26T19:13:00.174Z,4.33
2017-09-26T19:15:28.396Z,4.10
2017-09-26T19:17:56.608Z,4.53
2017-09-26T19:20:24.839Z,4.60
2017-09-26T19:22:53.119Z,3.80
2017-09-26T19:25:21.380Z,4.20
2017-09-26T19:27:50.384Z,4.17
2017-09-26T19:30:18.599Z,4.57
2017-09-26T19:32:47.504Z,4.40
2017-09-26T19:35:15.725Z,4.07
2017-09-26T19:37:43.932Z,4.27
2017-09-26T19:40:12.170Z,4.40
2017-09-26T19:42:41.277Z,4.33
2017-09-26T19:45:09.584Z,4.10
2017-09-26T19:47:37.816Z,4.43
2017-09-26T19:50:06.801Z,4.20
2017-09-26T19:52:35.795Z,5.13
2017-09-26T19:55:04.787Z,3.93
2017-09-26T19:57:33.024Z,4.37
2017-09-26T20:00:01.245Z,4.10
2017-09-26T20:02:30.315Z,4.53
2017-09-26T20:04:58.532Z,4.83
2017-09-26T20:07:26.753Z,3.80
2017-09-26T20:09:54.995Z,4.00
2017-09-26T20:12:23.217Z,4.13
2017-09-26T20:14:51.436Z,4.23
2017-09-26T20:17:19.665Z,5.50
2017-09-26T20:19:47.892Z,4.60
2017-09-26T20:22:16.212Z,4.20
2017-09-26T20:24:44.432Z,4.50
2017-09-26T20:27:12.672Z,4.17
2017-09-26T20:29:41.656Z,4.27
2017-09-26T20:32:09.864Z,4.27
2017-09-26T20:34:38.940Z,4.73
2017-09-26T20:37:07.156Z,5.37
2017-09-26T20:39:35.392Z,6.07
2017-09-26T20:42:03.613Z,4.73
2017-09-26T20:44:31.843Z,4.40
2017-09-26T20:47:00.067Z,4.20
2017-09-26T20:49:28.276Z,4.90
2017-09-26T20:51:56.505Z,4.70
2017-09-26T20:54:24.716Z,5.20
2017-09-26T20:56:52.970Z,5.50
2017-09-26T20:59:21.826Z,5.27
2017-09-26T21:01:50.808Z,5.40
2017-09-26T21:04:19.019Z,4.70
2017-09-26T21:06:47.248Z,4.40
2017-09-26T21:09:15.572Z,5.10
2017-09-26T21:11:43.772Z,4.40
2017-09-26T21:14:12.022Z,5.40
2017-09-26T21:16:40.308Z,4.90
2017-09-26T21:19:08.527Z,5.40
2017-09-26T21:21:36.771Z,5.10
2017-09-26T21:24:04.996Z,5.03
2017-09-26T21:26:33.980Z,5.33
2017-09-26T21:29:03.017Z,5.17
2017-09-26T21:31:31.217Z,4.90
2017-09-26T21:33:59.424Z,4.70
2017-09-26T21:36:28.464Z,4.63
2017-09-26T21:38:56.700Z,4.87
2017-09-26T21:41:25.752Z,4.50
2017-09-26T21:43:54.015Z,4.67
2017-09-26T21:46:22.311Z,4.97
2017-09-26T21:48:50.544Z,5.80
2017-09-26T21:51:18.947Z,5.17
2017-09-26T21:53:47.164Z,4.90
2017-09-26T21:56:16.455Z,5.27
2017-09-26T21:58:44.653Z,4.33
2017-09-26T22:01:13.628Z,4.60
2017-09-26T22:03:41.923Z,5.50
2017-09-26T22:06:10.892Z,5.20
2017-09-26T22:08:39.118Z,5.10
2017-09-26T22:11:07.320Z,4.23
2017-09-26T22:13:35.547Z,4.73
2017-09-26T22:16:04.544Z,4.90
2017-09-26T22:18:33.527Z,5.30
2017-09-26T22:21:02.532Z,4.43
2017-09-26T22:23:31.540Z,5.40
2017-09-26T22:25:59.848Z,4.87
2017-09-26T22:28:28.059Z,5.27
2017-09-26T22:30:56.272Z,4.97
2017-09-26T22:33:24.563Z,5.67
2017-09-26T22:35:52.781Z,5.27
2017-09-26T22:38:20.989Z,5.03
2017-09-26T22:40:49.220Z,4.80
2017-09-26T22:43:17.437Z,5.20
2017-09-26T22:45:46.460Z,4.70
2017-09-26T22:48:14.690Z,5.37
2017-09-26T22:50:43.693Z,5.43
2017-09-26T22:53:12.725Z,5.50
2017-09-26T22:55:40.964Z,6.03
2017-09-26T22:58:09.945Z,4.43
2017-09-26T23:00:38.988Z,5.07
2017-09-26T23:03:07.213Z,6.13
2017-09-26T23:05:35.457Z,4.97
2017-09-26T23:08:03.816Z,5.60
2017-09-26T23:10:32.077Z,4.67
2017-09-26T23:13:00.288Z,5.40
2017-09-26T23:15:28.532Z,4.60
2017-09-26T23:17:56.750Z,5.50
2017-09-26T23:20:24.949Z,4.97
2017-09-26T23:22:54.321Z,5.20
2017-09-26T23:25:22.520Z,5.50
2017-09-26T23:27:50.733Z,5.10
2017-09-26T23:30:18.947Z,5.53
2017-09-26T23:32:47.240Z,5.30
2017-09-26T23:35:15.452Z,4.80
2017-09-26T23:37:43.691Z,5.53
2017-09-26T23:40:11.954Z,5.97
2017-09-26T23:42:40.851Z,5.13
2017-09-26T23:45:09.081Z,5.47
2017-09-26T23:47:37.366Z,4.80
2017-09-26T23:50:05.555Z,5.63
2017-09-26T23:52:33.752Z,5.80
2017-09-26T23:55:01.961Z,6.00
2017-09-26T23:57:31.015Z,6.20
2017-09-26T23:59:59.247Z,4.93
